Main page
METAR-TAF:

METAR-TAF

Airports :

Alfredo Vásquez Cobo International Airport

Leticia, Colombia

latitude: 04-10S, longitude: 069-57W, elevation: 84 m

Current weather observation

The report was made 42 minutes ago, at 18:00 UTC
Wind 2 kt from variable directions
Temperature 31°C
Humidity 66%
Pressure 1012 hPa
Visibility 10 km or more
Scattered clouds at a height of 1800 ft
Scattered clouds at a height of 20000 ft

METAR: SKLT 241800Z VRB02KT 9999 SCT018 SCT200 31/24 Q1012 RMK A2989

Time: 13:42 (18:42 UTC)

Forecast

The report was made 2 hours and 12 minutes ago, at 16:30 UTC
Forecast valid from 24 at 18 UTC to 25 at 18 UTC
Wind 6 kt from the West/Southwest
Visibility 10 km or more
Scattered clouds at a height of 1700 ft
Probability 40% :
Temporary
from 25 at 02 UTC to 25 at 07 UTC
Scattered clouds at a height of 1000 ft
Broken clouds at a height of 8000 ft
drizzle, rain

TAF: SKLT 241630Z 2418/2518 25006KT 9999 SCT017 PROB40 TEMPO 2502/2507 DZRA SCT010 BKN080 TX33/2418Z TN21/2510Z

Weather observations and forecasts of more than 4000 airports (METAR and TAF reports).

The available stations are represented by yellow and red dots on the map.

Hover mouse over dot to see the name of the station.

Then click to see weather observations and forecasts.

To change the map : click on the green buttons with a black cross to zoom in, on the green button with a dash to zoom out, or on the green arrows for adjacent maps.


METAR-TAF: